Terminal Aerodrome Forecast
Issued by NWS Portland, OR

Home | Current Version | Previous Version | Text Only | Print | Product List | Glossary On
Versions: 1 2 3 4 5 6 7 8 9 10 11 12 13 14 15 16 17 18 19 20 21 22 23 24 25 26 27 28 29 30 31 32 33 34 35 36 37 38 39
000
FTUS46 KPQR 300520
TAFAST
TAF
KAST 300520Z 3006/3106 20015KT 6SM -RA BR SCT015 SCT025 OVC035
     FM300800 21013G19KT 5SM -SHRA SCT015 OVC025
     FM301300 21010KT P6SM -SHRA SCT015 OVC025
     FM301700 21013KT P6SM VCSH SCT025 BKN050
     FM310200 20005KT P6SM BKN050=

USA.gov is the U.S. government's official web portal to all federal, state and local government web resources and services.